This is the latest recevied weather packets stored in our database for station/object FW7644. If no packets are shown the sender has not sent any weather packets the latest 10 day(s).
| Time | Temp. | Humidity | Pressure | Rain* | Wind** | Luminosity | Snow |
|---|---|---|---|---|---|---|---|
| 1778163057 | 26.67° C | 54% | 1017 hPa | 0 mm | - | - | - |
| 1778162755 | 26.11° C | 57% | 1017 hPa | 0 mm | - | - | - |
| 1778162452 | 26.67° C | 57% | 1017.2 hPa | 0 mm | - | - | - |
| 1778162150 | 26.11° C | 62% | 1017.2 hPa | 0 mm | - | - | - |
| 1778161849 | 26.11° C | 60% | 1017.2 hPa | 0 mm | - | - | - |
| 1778161547 | 26.11° C | 60% | 1017.3 hPa | 0 mm | - | - | - |
| 1778161245 | 26.11° C | 61% | 1017.3 hPa | 0 mm | - | - | - |
| 1778160944 | 25° C | 66% | 1017.3 hPa | 0 mm | - | - | - |
| 1778160642 | 23.89° C | 70% | 1017.4 hPa | 0 mm | - | - | - |
| 1778160340 | 23.33° C | 72% | 1017.6 hPa | 0 mm | - | - | - |
| 1778160038 | 23.33° C | 70% | 1017.6 hPa | 0 mm | - | - | - |
| 1778159734 | 24.44° C | 66% | 1017.6 hPa | 0 mm | - | - | - |
| 1778159432 | 23.89° C | 68% | 1017.7 hPa | 0 mm | - | - | - |
| 1778159128 | 23.89° C | 67% | 1017.7 hPa | 0 mm | - | - | - |
| 1778158826 | 23.33° C | 69% | 1017.7 hPa | 0 mm | - | - | - |
| 1778158524 | 23.33° C | 69% | 1017.8 hPa | 0 mm | - | - | - |
| 1778158222 | 24.44° C | 64% | 1017.9 hPa | 0 mm | - | - | - |
| 1778157920 | 25.56° C | 62% | 1017.9 hPa | 0 mm | - | - | - |
| 1778157617 | 24.44° C | 63% | 1018 hPa | 0 mm | - | - | - |
| 1778157314 | 25° C | 64% | 1017.9 hPa | 0 mm | - | - | - |
| 1778157012 | 24.44° C | 64% | 1017.9 hPa | 0 mm | - | - | - |
| 1778156710 | 25° C | 65% | 1017.9 hPa | 0 mm | - | - | - |
| 1778156407 | 23.89° C | 68% | 1018 hPa | 0 mm | - | - | - |
| 1778156105 | 23.89° C | 69% | 1018 hPa | 0 mm | - | - | - |
| 1778155803 | 23.89° C | 70% | 1018 hPa | 0 mm | - | - | - |
* Rain latest hour (hover to see other rain measurements)
** Current wind speed in m/s (hover to see current wind gust speed)